Time;durP1;ratioP1;P1;durP2;ratioP2;P2;SDS_P1;SDS_P2;PMS_P1;PMS_P2;Temp;Humidity;BMP_temperature;BMP_pressure;BME280_temperature;BME280_humidity;BME280_pressure;Samples;Min_cycle;Max_cycle;Signal;HPM_P1;HPM_P2
2022/03/28 00:01:35;;;;;;;11.70;7.32;;;;;;;;;;5035362;28;20034;-69
2022/03/28 00:04:01;;;;;;;12.65;8.25;;;;;;;;;;5034297;28;20030;-72
2022/03/28 00:06:27;;;;;;;13.52;7.78;;;;;;;;;;5055223;23;20050;-68
2022/03/28 00:08:53;;;;;;;10.30;7.75;;;;;;;;;;5035023;28;20075;-67
2022/03/28 00:11:20;;;;;;;13.93;8.25;;;;;;;;;;5032965;28;20026;-67
2022/03/28 00:13:46;;;;;;;13.68;8.15;;;;;;;;;;5033393;28;20025;-68
2022/03/28 00:16:13;;;;;;;13.48;7.97;;;;;;;;;;5018287;28;20397;-68
2022/03/28 00:18:39;;;;;;;12.65;8.05;;;;;;;;;;5014368;28;20049;-67
2022/03/28 00:21:05;;;;;;;13.55;8.27;;;;;;;;;;5013572;28;20423;-66
2022/03/28 00:23:32;;;;;;;16.85;8.38;;;;;;;;;;5014149;28;20033;-68
2022/03/28 00:25:58;;;;;;;12.93;8.00;;;;;;;;;;5013050;28;20026;-68
2022/03/28 00:28:25;;;;;;;16.20;8.48;;;;;;;;;;5012958;28;20025;-67
2022/03/28 00:30:50;;;;;;;14.20;8.45;;;;;;;;;;5013913;28;20026;-68
2022/03/28 00:33:17;;;;;;;14.82;8.75;;;;;;;;;;5014045;28;20017;-69
2022/03/28 00:35:43;;;;;;;15.95;9.15;;;;;;;;;;5013525;28;20461;-67
2022/03/28 00:38:09;;;;;;;16.13;8.32;;;;;;;;;;5013353;28;20042;-70
2022/03/28 00:40:36;;;;;;;16.33;8.10;;;;;;;;;;5012589;28;20398;-67
2022/03/28 00:43:03;;;;;;;14.40;8.88;;;;;;;;;;5011750;28;20069;-68
2022/03/28 00:45:31;;;;;;;15.23;8.43;;;;;;;;;;5011634;28;20042;-69
2022/03/28 00:47:57;;;;;;;13.73;8.23;;;;;;;;;;5011903;28;20175;-68
2022/03/28 00:50:23;;;;;;;13.55;8.32;;;;;;;;;;5010578;28;20037;-68
2022/03/28 00:52:50;;;;;;;18.73;9.00;;;;;;;;;;5012956;28;20030;-66
2022/03/28 00:55:16;;;;;;;14.90;8.02;;;;;;;;;;5012460;28;20037;-68
2022/03/28 00:57:42;;;;;;;14.63;8.10;;;;;;;;;;5012191;28;20113;-68
2022/03/28 01:00:09;;;;;;;14.63;8.50;;;;;;;;;;5011514;28;20030;-68
2022/03/28 01:02:35;;;;;;;12.93;7.53;;;;;;;;;;5012937;28;20041;-68
2022/03/28 01:05:01;;;;;;;16.05;9.32;;;;;;;;;;5012242;28;20045;-68
2022/03/28 01:07:28;;;;;;;16.02;8.77;;;;;;;;;;5012523;28;20109;-68
2022/03/28 01:09:55;;;;;;;13.77;8.23;;;;;;;;;;5013447;28;20026;-68
2022/03/28 01:12:22;;;;;;;12.80;8.02;;;;;;;;;;5011911;28;20022;-68
2022/03/28 01:14:49;;;;;;;16.48;8.88;;;;;;;;;;5012431;28;20064;-68
2022/03/28 01:19:59;;;;;;;13.55;8.65;;;;;;;;;;5012509;28;20036;-67
2022/03/28 01:22:26;;;;;;;18.02;9.82;;;;;;;;;;5013205;28;20030;-67
2022/03/28 01:24:52;;;;;;;15.75;9.13;;;;;;;;;;5021847;28;20022;-67
2022/03/28 01:27:19;;;;;;;16.92;8.55;;;;;;;;;;5027589;28;20041;-67
2022/03/28 01:29:45;;;;;;;18.95;9.05;;;;;;;;;;5012557;28;20034;-67
2022/03/28 01:32:11;;;;;;;18.75;9.18;;;;;;;;;;5010975;28;20505;-68
2022/03/28 01:34:38;;;;;;;13.20;8.63;;;;;;;;;;5012427;28;20030;-67
2022/03/28 01:37:04;;;;;;;14.65;9.05;;;;;;;;;;5010334;28;20100;-67
2022/03/28 01:39:32;;;;;;;16.92;9.32;;;;;;;;;;5012771;28;20041;-67
2022/03/28 01:41:58;;;;;;;15.50;9.10;;;;;;;;;;5013410;28;20033;-67
2022/03/28 01:44:24;;;;;;;16.95;8.88;;;;;;;;;;5012465;28;20030;-67
2022/03/28 01:46:50;;;;;;;19.05;10.23;;;;;;;;;;5011506;28;20076;-68
2022/03/28 01:49:18;;;;;;;20.45;10.27;;;;;;;;;;5012289;28;20026;-67
2022/03/28 01:51:45;;;;;;;18.13;9.30;;;;;;;;;;5010879;28;20037;-69
2022/03/28 01:54:11;;;;;;;16.65;9.35;;;;;;;;;;5009443;28;20553;-69
2022/03/28 01:56:38;;;;;;;20.73;9.80;;;;;;;;;;5009104;28;20045;-69
2022/03/28 01:59:04;;;;;;;21.88;10.15;;;;;;;;;;5010792;28;20033;-68
2022/03/28 02:01:30;;;;;;;20.02;9.55;;;;;;;;;;5012213;28;20041;-68
2022/03/28 02:03:57;;;;;;;21.45;10.65;;;;;;;;;;5012499;28;20038;-68
2022/03/28 02:06:23;;;;;;;20.63;10.80;;;;;;;;;;5011379;28;20037;-68
2022/03/28 02:08:49;;;;;;;21.23;9.98;;;;;;;;;;5012357;28;20030;-68
2022/03/28 02:11:15;;;;;;;19.38;10.00;;;;;;;;;;5011279;28;20048;-68
2022/03/28 02:13:41;;;;;;;18.08;9.35;;;;;;;;;;5011829;28;20025;-69
2022/03/28 02:16:07;;;;;;;17.02;9.13;;;;;;;;;;5010967;28;20038;-67
2022/03/28 02:18:33;;;;;;;20.75;9.27;;;;;;;;;;5015404;28;20022;-67
2022/03/28 02:20:59;;;;;;;19.88;9.88;;;;;;;;;;5016022;28;20030;-67
2022/03/28 02:23:25;;;;;;;21.38;9.68;;;;;;;;;;5015493;28;20026;-67
2022/03/28 02:25:51;;;;;;;19.20;9.90;;;;;;;;;;5014229;28;20489;-67
2022/03/28 02:28:17;;;;;;;19.10;9.85;;;;;;;;;;5014863;28;20033;-67
2022/03/28 02:30:43;;;;;;;18.60;10.02;;;;;;;;;;5014531;28;20092;-67
2022/03/28 02:33:09;;;;;;;23.85;10.63;;;;;;;;;;5015300;28;20091;-67
2022/03/28 02:35:36;;;;;;;20.50;9.90;;;;;;;;;;5015190;28;20075;-67
2022/03/28 02:38:02;;;;;;;21.23;9.88;;;;;;;;;;5014719;28;20045;-67
2022/03/28 02:40:29;;;;;;;19.77;9.82;;;;;;;;;;5015484;28;20383;-67
2022/03/28 02:42:58;;;;;;;20.92;9.70;;;;;;;;;;5014771;28;20037;-67
2022/03/28 02:45:28;;;;;;;21.67;9.48;;;;;;;;;;5013952;28;20534;-66
2022/03/28 02:47:54;;;;;;;19.77;9.93;;;;;;;;;;5014887;28;20045;-66
2022/03/28 02:50:20;;;;;;;19.25;9.30;;;;;;;;;;5013780;28;20045;-67
2022/03/28 02:52:46;;;;;;;18.13;9.48;;;;;;;;;;5014869;28;20029;-67
2022/03/28 02:55:14;;;;;;;22.42;9.50;;;;;;;;;;5015062;28;20453;-68
2022/03/28 02:57:40;;;;;;;20.33;9.10;;;;;;;;;;5014251;28;20038;-69
2022/03/28 03:00:10;;;;;;;20.48;8.93;;;;;;;;;;5015104;28;20025;-68
2022/03/28 03:02:38;;;;;;;18.75;8.32;;;;;;;;;;5014448;28;20084;-68
2022/03/28 03:05:04;;;;;;;17.15;8.77;;;;;;;;;;5014207;28;20080;-69
2022/03/28 03:07:30;;;;;;;16.17;8.02;;;;;;;;;;5013389;28;20030;-68
2022/03/28 03:09:56;;;;;;;17.60;8.43;;;;;;;;;;5015178;28;20080;-68
2022/03/28 03:12:22;;;;;;;17.17;7.57;;;;;;;;;;5014801;28;20026;-69
2022/03/28 03:14:48;;;;;;;15.85;8.13;;;;;;;;;;5015054;28;20478;-68
2022/03/28 03:17:14;;;;;;;17.08;8.73;;;;;;;;;;5024534;28;20373;-67
2022/03/28 03:19:40;;;;;;;24.20;9.23;;;;;;;;;;5036637;28;20044;-68
2022/03/28 03:22:07;;;;;;;19.65;7.20;;;;;;;;;;5032782;28;20029;-68
2022/03/28 03:24:34;;;;;;;17.98;7.78;;;;;;;;;;5016561;28;20034;-68
2022/03/28 03:27:00;;;;;;;15.13;7.40;;;;;;;;;;5015472;28;20038;-67
2022/03/28 03:29:26;;;;;;;15.52;7.72;;;;;;;;;;5012700;28;20222;-67
2022/03/28 03:31:52;;;;;;;17.17;7.65;;;;;;;;;;5014327;28;20034;-68
2022/03/28 03:34:18;;;;;;;16.55;7.68;;;;;;;;;;5014884;28;20026;-69
2022/03/28 03:36:44;;;;;;;12.50;6.78;;;;;;;;;;5014772;28;20053;-68
2022/03/28 03:39:10;;;;;;;16.27;7.30;;;;;;;;;;5014832;28;20086;-68
2022/03/28 03:41:36;;;;;;;15.45;7.15;;;;;;;;;;5014414;28;20032;-67
2022/03/28 03:44:02;;;;;;;18.40;7.68;;;;;;;;;;5012065;28;20038;-67
2022/03/28 03:46:28;;;;;;;16.90;7.47;;;;;;;;;;5014136;28;20823;-66
2022/03/28 03:48:54;;;;;;;18.70;8.82;;;;;;;;;;5013881;28;20046;-67
2022/03/28 03:51:20;;;;;;;20.17;8.00;;;;;;;;;;5013258;28;20040;-67
2022/03/28 03:53:46;;;;;;;17.58;9.35;;;;;;;;;;5014092;28;20040;-67
2022/03/28 03:56:13;;;;;;;19.73;8.63;;;;;;;;;;5012835;28;20413;-68
2022/03/28 03:58:39;;;;;;;19.38;8.20;;;;;;;;;;5013716;28;20030;-68
2022/03/28 04:01:06;;;;;;;18.90;8.77;;;;;;;;;;5014491;28;20088;-68
2022/03/28 04:03:33;;;;;;;18.38;8.02;;;;;;;;;;5013821;28;20593;-67
2022/03/28 04:05:59;;;;;;;17.65;8.98;;;;;;;;;;5012620;28;20126;-67
2022/03/28 04:08:26;;;;;;;17.20;7.65;;;;;;;;;;5013647;28;20098;-68
2022/03/28 04:10:52;;;;;;;19.10;7.82;;;;;;;;;;5012439;28;20033;-69
2022/03/28 04:13:18;;;;;;;15.48;8.15;;;;;;;;;;5012902;28;20061;-66
2022/03/28 04:15:44;;;;;;;17.30;8.05;;;;;;;;;;5013712;28;20036;-68
2022/03/28 04:18:10;;;;;;;15.95;7.75;;;;;;;;;;5013292;28;20052;-68
2022/03/28 04:20:36;;;;;;;19.50;8.25;;;;;;;;;;5012798;28;20630;-68
2022/03/28 04:23:02;;;;;;;19.00;8.25;;;;;;;;;;5012847;28;20025;-67
2022/03/28 04:25:28;;;;;;;17.85;8.00;;;;;;;;;;5013053;28;20471;-68
2022/03/28 04:27:54;;;;;;;20.65;8.15;;;;;;;;;;5011701;28;20041;-68
2022/03/28 04:30:21;;;;;;;18.38;8.75;;;;;;;;;;5013486;28;20152;-67
2022/03/28 04:32:47;;;;;;;16.73;7.43;;;;;;;;;;5013304;28;20038;-65
2022/03/28 04:35:13;;;;;;;15.88;7.00;;;;;;;;;;5012999;28;20112;-66
2022/03/28 04:37:41;;;;;;;15.80;6.88;;;;;;;;;;5013109;28;20033;-65
2022/03/28 04:40:08;;;;;;;17.38;7.72;;;;;;;;;;5013027;28;20037;-66
2022/03/28 04:42:34;;;;;;;21.17;9.18;;;;;;;;;;5011962;28;20040;-65
2022/03/28 04:45:01;;;;;;;18.50;8.02;;;;;;;;;;5012359;28;20040;-68
2022/03/28 04:47:27;;;;;;;16.75;7.13;;;;;;;;;;5012345;28;20401;-70
2022/03/28 04:49:53;;;;;;;15.55;7.28;;;;;;;;;;5013502;28;20033;-68
2022/03/28 04:52:19;;;;;;;18.25;7.78;;;;;;;;;;5012253;28;20018;-70
2022/03/28 04:54:45;;;;;;;16.02;8.00;;;;;;;;;;5011551;28;20125;-66
2022/03/28 04:57:11;;;;;;;18.13;8.32;;;;;;;;;;5012409;28;20084;-66
2022/03/28 04:59:37;;;;;;;15.65;7.88;;;;;;;;;;5012294;28;20026;-67
2022/03/28 05:02:03;;;;;;;14.43;7.97;;;;;;;;;;5010157;28;20069;-65
2022/03/28 05:04:29;;;;;;;17.15;8.13;;;;;;;;;;5012253;28;20466;-65
2022/03/28 05:06:55;;;;;;;17.85;8.48;;;;;;;;;;5012435;28;20108;-65
2022/03/28 05:09:20;;;;;;;17.55;8.48;;;;;;;;;;5008735;28;20030;-66
2022/03/28 05:11:46;;;;;;;16.60;8.43;;;;;;;;;;5012671;28;20095;-65
2022/03/28 05:14:12;;;;;;;15.75;7.93;;;;;;;;;;5010999;28;20594;-65
2022/03/28 05:16:38;;;;;;;15.27;8.55;;;;;;;;;;5011972;28;20038;-65
2022/03/28 05:19:04;;;;;;;15.45;8.80;;;;;;;;;;5010533;28;20049;-65
2022/03/28 05:21:32;;;;;;;19.40;8.52;;;;;;;;;;5006763;28;20137;-65
2022/03/28 05:23:58;;;;;;;16.40;8.63;;;;;;;;;;5012294;28;20121;-66
2022/03/28 05:26:26;;;;;;;16.17;8.95;;;;;;;;;;5017535;28;20405;-65
2022/03/28 05:28:52;;;;;;;24.40;9.35;;;;;;;;;;5016598;28;20029;-65
2022/03/28 05:31:19;;;;;;;18.48;9.55;;;;;;;;;;5034121;28;20030;-65
2022/03/28 05:33:45;;;;;;;17.45;8.95;;;;;;;;;;5029031;28;20061;-66
2022/03/28 05:36:11;;;;;;;16.95;9.90;;;;;;;;;;5013729;28;20053;-65
2022/03/28 05:38:38;;;;;;;19.55;9.93;;;;;;;;;;5010706;28;20075;-65
2022/03/28 05:41:07;;;;;;;20.48;10.23;;;;;;;;;;5011068;28;20034;-65
2022/03/28 05:43:34;;;;;;;18.67;9.75;;;;;;;;;;5009692;28;20060;-67
2022/03/28 05:46:00;;;;;;;18.35;9.73;;;;;;;;;;5013321;28;20489;-66
2022/03/28 05:48:26;;;;;;;21.65;11.35;;;;;;;;;;5014874;28;20061;-65
2022/03/28 05:50:52;;;;;;;18.25;10.07;;;;;;;;;;5013488;28;20053;-65
2022/03/28 05:53:19;;;;;;;21.17;10.93;;;;;;;;;;5017209;28;20115;-65
2022/03/28 05:55:45;;;;;;;19.40;9.77;;;;;;;;;;5011858;28;20026;-65
2022/03/28 05:58:11;;;;;;;23.17;11.02;;;;;;;;;;5015114;28;20104;-67
2022/03/28 06:00:37;;;;;;;21.08;9.98;;;;;;;;;;5012490;28;20044;-65
2022/03/28 06:03:08;;;;;;;19.90;10.50;;;;;;;;;;5011527;28;20046;-65
2022/03/28 06:05:34;;;;;;;21.67;10.60;;;;;;;;;;5039408;22;20041;-67
2022/03/28 06:08:00;;;;;;;18.45;9.63;;;;;;;;;;5031341;28;20034;-68
2022/03/28 06:10:26;;;;;;;22.23;10.50;;;;;;;;;;5030407;28;20052;-68
2022/03/28 06:12:52;;;;;;;22.20;10.05;;;;;;;;;;5029520;28;20024;-67
2022/03/28 06:15:18;;;;;;;19.95;10.20;;;;;;;;;;5039885;28;20065;-68
2022/03/28 06:17:45;;;;;;;21.13;10.68;;;;;;;;;;5034968;28;20041;-69
2022/03/28 06:20:11;;;;;;;22.60;9.73;;;;;;;;;;5040354;28;20029;-67
2022/03/28 06:22:38;;;;;;;20.02;10.13;;;;;;;;;;5037900;28;20214;-68
2022/03/28 06:25:04;;;;;;;15.60;9.57;;;;;;;;;;5044365;28;20033;-70
2022/03/28 06:27:30;;;;;;;14.40;8.30;;;;;;;;;;5040740;28;20032;-69
2022/03/28 06:29:56;;;;;;;16.30;8.88;;;;;;;;;;5038825;28;20040;-67
2022/03/28 06:32:22;;;;;;;17.17;8.95;;;;;;;;;;5031402;28;20021;-68
2022/03/28 06:34:48;;;;;;;19.70;10.13;;;;;;;;;;5029613;28;20446;-70
2022/03/28 06:37:16;;;;;;;17.92;9.02;;;;;;;;;;5032515;28;20041;-68
2022/03/28 06:39:42;;;;;;;18.42;9.32;;;;;;;;;;5029748;28;20548;-68
2022/03/28 06:42:08;;;;;;;15.73;8.98;;;;;;;;;;5030563;28;20030;-68
2022/03/28 06:44:34;;;;;;;15.07;9.07;;;;;;;;;;5029308;28;20401;-68
2022/03/28 06:47:01;;;;;;;17.50;10.05;;;;;;;;;;5029865;28;20167;-68
2022/03/28 06:49:28;;;;;;;18.95;8.73;;;;;;;;;;5031092;28;20029;-69
2022/03/28 06:51:54;;;;;;;17.20;9.05;;;;;;;;;;5030461;28;20044;-70
2022/03/28 06:54:20;;;;;;;18.70;9.80;;;;;;;;;;5033837;28;20037;-69
2022/03/28 06:56:46;;;;;;;20.63;11.35;;;;;;;;;;5036746;28;20041;-72
2022/03/28 06:59:13;;;;;;;19.65;11.13;;;;;;;;;;5040074;28;20048;-73
2022/03/28 07:01:41;;;;;;;18.77;10.13;;;;;;;;;;5042338;28;20029;-70
2022/03/28 07:04:10;;;;;;;19.45;10.18;;;;;;;;;;5049424;28;20595;-79
2022/03/28 07:06:36;;;;;;;17.60;9.77;;;;;;;;;;5057188;28;20087;-80
2022/03/28 07:09:04;;;;;;;16.35;9.68;;;;;;;;;;5051822;28;20376;-79
2022/03/28 07:11:30;;;;;;;16.13;9.45;;;;;;;;;;5047146;28;20056;-79
2022/03/28 07:13:56;;;;;;;16.17;9.45;;;;;;;;;;5039312;28;20109;-73
2022/03/28 07:16:22;;;;;;;14.27;9.02;;;;;;;;;;5034840;28;20056;-76
2022/03/28 07:18:48;;;;;;;13.15;8.93;;;;;;;;;;5039713;28;20031;-76
2022/03/28 07:21:14;;;;;;;12.70;8.40;;;;;;;;;;5038250;28;20052;-75
2022/03/28 07:23:41;;;;;;;14.93;8.13;;;;;;;;;;5042849;28;20049;-75
2022/03/28 07:26:08;;;;;;;13.55;8.20;;;;;;;;;;5044898;28;20091;-78
2022/03/28 07:28:38;;;;;;;12.52;8.70;;;;;;;;;;5031062;28;20026;-74
2022/03/28 07:31:07;;;;;;;13.27;8.20;;;;;;;;;;5041537;28;20446;-76
2022/03/28 07:33:33;;;;;;;14.10;8.57;;;;;;;;;;5043941;28;20025;-76
2022/03/28 07:35:59;;;;;;;13.13;8.00;;;;;;;;;;5028710;28;20104;-77
2022/03/28 07:38:25;;;;;;;14.10;8.13;;;;;;;;;;5029920;28;20029;-75
2022/03/28 07:40:51;;;;;;;13.73;8.68;;;;;;;;;;5027696;28;20204;-77
2022/03/28 07:43:17;;;;;;;15.73;8.77;;;;;;;;;;5027483;28;20470;-77
2022/03/28 07:45:43;;;;;;;14.90;9.02;;;;;;;;;;5031346;28;20132;-77
2022/03/28 07:48:09;;;;;;;15.00;9.27;;;;;;;;;;5045603;28;20045;-77
2022/03/28 07:50:36;;;;;;;15.32;8.75;;;;;;;;;;5032499;28;20117;-75
2022/03/28 07:53:02;;;;;;;16.80;8.88;;;;;;;;;;5038019;28;20888;-78
2022/03/28 07:55:28;;;;;;;15.13;8.32;;;;;;;;;;5034818;28;20029;-70
2022/03/28 07:57:54;;;;;;;14.45;8.13;;;;;;;;;;5029456;28;20116;-70
2022/03/28 08:00:20;;;;;;;15.93;8.70;;;;;;;;;;5030095;28;20021;-70
2022/03/28 08:02:46;;;;;;;17.35;8.70;;;;;;;;;;5035045;28;20040;-70
2022/03/28 08:05:12;;;;;;;18.38;9.77;;;;;;;;;;5037100;28;20079;-69
2022/03/28 08:07:38;;;;;;;17.02;9.23;;;;;;;;;;5031971;28;20482;-72
2022/03/28 08:10:05;;;;;;;13.75;8.32;;;;;;;;;;5033282;28;20033;-78
2022/03/28 08:12:32;;;;;;;14.05;9.02;;;;;;;;;;5036185;28;20025;-77
2022/03/28 08:14:58;;;;;;;13.57;8.43;;;;;;;;;;5033744;28;20143;-76
2022/03/28 08:17:24;;;;;;;15.20;8.38;;;;;;;;;;5049772;28;20017;-75
2022/03/28 08:19:50;;;;;;;13.63;7.22;;;;;;;;;;5037849;28;20080;-74
2022/03/28 08:22:17;;;;;;;14.27;6.82;;;;;;;;;;5039147;28;20052;-75
2022/03/28 08:24:43;;;;;;;17.27;8.18;;;;;;;;;;5035506;28;20132;-76
2022/03/28 08:27:09;;;;;;;15.48;7.65;;;;;;;;;;5036710;28;20033;-74
2022/03/28 08:29:35;;;;;;;13.50;7.43;;;;;;;;;;5027176;28;20030;-76
2022/03/28 08:32:02;;;;;;;11.80;7.90;;;;;;;;;;5034317;28;20496;-77
2022/03/28 08:34:29;;;;;;;13.45;8.38;;;;;;;;;;5033419;28;20024;-75
2022/03/28 08:36:56;;;;;;;12.35;8.52;;;;;;;;;;5029994;28;20029;-75
2022/03/28 08:39:22;;;;;;;14.85;8.65;;;;;;;;;;5032819;28;20130;-77
2022/03/28 08:41:49;;;;;;;12.02;8.68;;;;;;;;;;5035193;28;20529;-77
2022/03/28 08:44:15;;;;;;;15.63;9.07;;;;;;;;;;5033854;28;20481;-75
2022/03/28 08:46:43;;;;;;;15.75;8.90;;;;;;;;;;5032003;28;20083;-76
2022/03/28 08:49:10;;;;;;;11.65;9.20;;;;;;;;;;5037722;28;20448;-74
2022/03/28 08:51:36;;;;;;;12.25;8.15;;;;;;;;;;5031936;28;20025;-72
2022/03/28 08:54:03;;;;;;;13.98;8.48;;;;;;;;;;5033079;28;21701;-76
2022/03/28 08:56:29;;;;;;;10.70;7.88;;;;;;;;;;5034806;28;20079;-74
2022/03/28 08:58:55;;;;;;;11.73;8.43;;;;;;;;;;5038318;28;20029;-75
2022/03/28 09:01:21;;;;;;;12.63;9.02;;;;;;;;;;5039329;28;20022;-74
2022/03/28 09:03:48;;;;;;;12.45;7.82;;;;;;;;;;5032630;28;20033;-75
2022/03/28 09:06:35;;;;;;;12.85;8.45;;;;;;;;;;5033933;28;20181;-75
2022/03/28 09:09:12;;;;;;;9.60;7.03;;;;;;;;;;5043495;28;20029;-78
2022/03/28 09:11:38;;;;;;;12.55;7.63;;;;;;;;;;5044842;28;20105;-75
2022/03/28 09:14:04;;;;;;;13.45;7.55;;;;;;;;;;5040872;28;20511;-75
2022/03/28 09:16:34;;;;;;;10.00;7.22;;;;;;;;;;5051238;28;20563;-76
2022/03/28 09:19:01;;;;;;;9.80;7.22;;;;;;;;;;5043789;28;20112;-75
2022/03/28 09:21:27;;;;;;;11.88;6.53;;;;;;;;;;5043188;28;20101;-74
2022/03/28 09:23:54;;;;;;;12.45;6.35;;;;;;;;;;5043410;28;20029;-74
2022/03/28 09:26:24;;;;;;;11.18;5.97;;;;;;;;;;5046661;28;20466;-77
2022/03/28 09:28:54;;;;;;;8.98;5.20;;;;;;;;;;5043519;28;20023;-76
2022/03/28 09:31:26;;;;;;;12.82;6.60;;;;;;;;;;5038301;28;20022;-74
2022/03/28 09:33:52;;;;;;;9.98;5.70;;;;;;;;;;5043359;28;20041;-74
2022/03/28 09:36:18;;;;;;;11.90;6.35;;;;;;;;;;5043421;28;20029;-75
2022/03/28 09:38:57;;;;;;;11.50;6.10;;;;;;;;;;5046550;28;20033;-79
2022/03/28 09:41:28;;;;;;;10.65;6.10;;;;;;;;;;5045219;28;20060;-75
2022/03/28 09:43:55;;;;;;;11.43;6.32;;;;;;;;;;5038059;28;20033;-76
2022/03/28 09:46:31;;;;;;;11.07;6.38;;;;;;;;;;5044891;28;20037;-76
2022/03/28 09:48:59;;;;;;;10.10;5.97;;;;;;;;;;5034295;28;20087;-76
2022/03/28 09:51:29;;;;;;;14.38;5.97;;;;;;;;;;5036405;28;20104;-74
2022/03/28 09:53:56;;;;;;;11.35;5.97;;;;;;;;;;5028163;28;20034;-73
2022/03/28 09:56:22;;;;;;;11.25;5.97;;;;;;;;;;5032645;28;20352;-76
2022/03/28 09:58:49;;;;;;;12.60;6.38;;;;;;;;;;5037155;28;20057;-75
2022/03/28 10:01:17;;;;;;;13.55;6.57;;;;;;;;;;5038639;28;20101;-76
2022/03/28 10:03:45;;;;;;;11.05;6.55;;;;;;;;;;5037282;28;20041;-75
2022/03/28 10:06:11;;;;;;;10.70;6.47;;;;;;;;;;5034217;28;20029;-69
2022/03/28 10:08:38;;;;;;;11.20;6.32;;;;;;;;;;5031174;28;20088;-78
2022/03/28 10:11:04;;;;;;;16.88;6.47;;;;;;;;;;5029724;28;20048;-74
2022/03/28 10:13:31;;;;;;;10.25;6.28;;;;;;;;;;5034633;28;20083;-75
2022/03/28 10:16:00;;;;;;;13.88;6.60;;;;;;;;;;5042345;28;20271;-77
2022/03/28 10:18:49;;;;;;;11.68;6.63;;;;;;;;;;5047490;28;20066;-77
2022/03/28 10:21:21;;;;;;;9.50;6.03;;;;;;;;;;5043901;28;20114;-77
2022/03/28 10:23:47;;;;;;;13.13;6.30;;;;;;;;;;5039519;28;20042;-77
2022/03/28 10:26:14;;;;;;;12.43;6.38;;;;;;;;;;5045389;28;20022;-78
2022/03/28 10:28:40;;;;;;;12.35;6.10;;;;;;;;;;5039667;28;20045;-79
2022/03/28 10:31:16;;;;;;;11.70;6.63;;;;;;;;;;5039206;28;20025;-79
2022/03/28 10:33:46;;;;;;;10.02;6.03;;;;;;;;;;5045317;28;20105;-78
2022/03/28 10:36:34;;;;;;;9.85;5.82;;;;;;;;;;5056954;28;20017;-77
2022/03/28 10:39:20;;;;;;;9.93;6.03;;;;;;;;;;5046565;28;20025;-74
2022/03/28 10:41:46;;;;;;;10.95;6.60;;;;;;;;;;5048086;28;20526;-78
2022/03/28 10:44:12;;;;;;;13.35;6.05;;;;;;;;;;5046744;28;20024;-76
2022/03/28 10:46:38;;;;;;;9.85;5.45;;;;;;;;;;5044429;28;20394;-80
2022/03/28 10:49:06;;;;;;;11.10;5.80;;;;;;;;;;5045974;28;20103;-81
2022/03/28 10:51:32;;;;;;;10.82;6.00;;;;;;;;;;5048717;28;20022;-80
2022/03/28 10:54:00;;;;;;;13.48;6.05;;;;;;;;;;5041573;28;20025;-79
2022/03/28 10:56:27;;;;;;;11.40;6.60;;;;;;;;;;5051187;28;20082;-78
2022/03/28 10:58:55;;;;;;;12.25;6.55;;;;;;;;;;5049768;28;20041;-77
2022/03/28 11:01:32;;;;;;;9.88;5.68;;;;;;;;;;5061385;28;20073;-77
2022/03/28 11:04:02;;;;;;;11.25;5.38;;;;;;;;;;5044606;28;20081;-80
2022/03/28 11:06:45;;;;;;;10.38;5.82;;;;;;;;;;5036497;28;20505;-79
2022/03/28 11:09:11;;;;;;;14.57;6.75;;;;;;;;;;5036982;28;20093;-78
2022/03/28 11:11:55;;;;;;;10.73;5.50;;;;;;;;;;5051903;28;20032;-79
2022/03/28 11:14:37;;;;;;;8.18;5.43;;;;;;;;;;5051020;28;20009;-77
2022/03/28 11:17:12;;;;;;;12.68;5.72;;;;;;;;;;5041018;28;20032;-74
2022/03/28 11:19:50;;;;;;;9.63;5.75;;;;;;;;;;5039486;28;20114;-74
2022/03/28 11:22:16;;;;;;;12.27;6.25;;;;;;;;;;5035362;28;20040;-71
2022/03/28 11:24:46;;;;;;;13.55;6.18;;;;;;;;;;5026536;28;20025;-76
2022/03/28 11:27:13;;;;;;;11.07;6.22;;;;;;;;;;5027594;28;20205;-69
2022/03/28 11:29:40;;;;;;;11.75;5.50;;;;;;;;;;5037509;28;20385;-76
2022/03/28 11:32:10;;;;;;;12.52;6.18;;;;;;;;;;5033547;28;20535;-76
2022/03/28 11:34:36;;;;;;;10.13;5.75;;;;;;;;;;5048625;28;20240;-76
2022/03/28 11:37:03;;;;;;;10.35;5.45;;;;;;;;;;5035077;28;20373;-75
2022/03/28 11:39:31;;;;;;;13.20;5.60;;;;;;;;;;5036348;28;20443;-77
2022/03/28 11:41:57;;;;;;;9.38;5.93;;;;;;;;;;5038979;28;20108;-76
2022/03/28 11:44:25;;;;;;;14.02;7.68;;;;;;;;;;5038167;28;20057;-75
2022/03/28 11:46:55;;;;;;;9.52;6.80;;;;;;;;;;5044095;28;20040;-76
2022/03/28 11:49:21;;;;;;;11.73;5.03;;;;;;;;;;5041552;28;20045;-77
2022/03/28 11:51:48;;;;;;;9.63;5.57;;;;;;;;;;5047758;28;20029;-75
2022/03/28 11:54:16;;;;;;;7.93;5.22;;;;;;;;;;5048072;28;20025;-75
2022/03/28 11:59:27;;;;;;;;;;;;;;;;;;5056627;28;20071;-77
2022/03/28 12:02:01;;;;;;;5.38;3.95;;;;;;;;;;5041204;28;19909;-77
2022/03/28 12:04:27;;;;;;;8.65;5.57;;;;;;;;;;5035321;28;20058;-74
2022/03/28 12:06:53;;;;;;;8.40;5.40;;;;;;;;;;5045167;28;20111;-71
2022/03/28 12:09:23;;;;;;;10.70;5.50;;;;;;;;;;5040808;28;20101;-77
2022/03/28 12:11:50;;;;;;;7.57;4.95;;;;;;;;;;5037687;28;20029;-76
2022/03/28 12:14:17;;;;;;;10.02;5.75;;;;;;;;;;5037964;28;20033;-76
2022/03/28 12:16:46;;;;;;;11.02;6.10;;;;;;;;;;5038801;28;20029;-76
2022/03/28 12:19:19;;;;;;;10.75;4.93;;;;;;;;;;5036844;28;20063;-77
2022/03/28 12:21:45;;;;;;;13.63;6.97;;;;;;;;;;5028265;28;20053;-76
2022/03/28 12:24:11;;;;;;;9.90;6.55;;;;;;;;;;5025673;28;20021;-77
2022/03/28 12:26:45;;;;;;;13.60;7.30;;;;;;;;;;5032942;28;20033;-77
2022/03/28 12:29:11;;;;;;;10.68;7.25;;;;;;;;;;5035597;28;20017;-76
2022/03/28 12:31:38;;;;;;;12.48;7.82;;;;;;;;;;5040143;28;20036;-76
2022/03/28 12:34:04;;;;;;;14.43;7.47;;;;;;;;;;5039969;28;20056;-74
2022/03/28 12:36:30;;;;;;;8.82;5.78;;;;;;;;;;5037435;28;20477;-75
2022/03/28 12:39:07;;;;;;;12.70;7.57;;;;;;;;;;5038773;28;20120;-76
2022/03/28 12:41:40;;;;;;;13.68;7.60;;;;;;;;;;5046995;28;20010;-75
2022/03/28 12:44:12;;;;;;;14.35;7.35;;;;;;;;;;5048350;28;20077;-74
2022/03/28 12:46:38;;;;;;;10.98;6.78;;;;;;;;;;5065362;28;20028;-73
2022/03/28 12:49:08;;;;;;;9.00;6.75;;;;;;;;;;5039823;28;20033;-76
2022/03/28 12:51:34;;;;;;;10.52;7.32;;;;;;;;;;5037081;28;20018;-69
2022/03/28 12:54:08;;;;;;;14.27;7.88;;;;;;;;;;5037400;28;20026;-76
2022/03/28 12:56:49;;;;;;;14.20;7.85;;;;;;;;;;5036510;28;20025;-76
2022/03/28 12:59:25;;;;;;;11.80;6.65;;;;;;;;;;5047970;28;20037;-76
2022/03/28 13:01:53;;;;;;;12.70;7.10;;;;;;;;;;5034062;28;20297;-76
2022/03/28 13:04:20;;;;;;;13.18;6.68;;;;;;;;;;5036852;28;20025;-76
2022/03/28 13:06:50;;;;;;;8.68;5.45;;;;;;;;;;5038205;28;20029;-77
2022/03/28 13:09:18;;;;;;;11.18;6.10;;;;;;;;;;5038055;28;20044;-76
2022/03/28 13:11:46;;;;;;;7.05;4.65;;;;;;;;;;5033170;28;20112;-75
2022/03/28 13:14:28;;;;;;;8.07;4.63;;;;;;;;;;5036671;28;20037;-77
2022/03/28 13:17:04;;;;;;;8.10;4.88;;;;;;;;;;5035186;28;20084;-76
2022/03/28 13:19:30;;;;;;;10.25;4.63;;;;;;;;;;5041800;28;20025;-78
2022/03/28 13:21:58;;;;;;;7.82;4.40;;;;;;;;;;5041547;28;20099;-76
2022/03/28 13:24:27;;;;;;;6.95;4.35;;;;;;;;;;5040518;28;20025;-76
2022/03/28 13:28:01;;;;;;;7.93;4.82;;;;;;;;;;5045286;28;20116;-75
2022/03/28 13:29:40;;;;;;;9.00;4.95;;;;;;;;;;5044304;28;20033;-77
2022/03/28 13:32:06;;;;;;;7.15;4.63;;;;;;;;;;5045338;28;20022;-76
2022/03/28 13:34:32;;;;;;;8.98;4.70;;;;;;;;;;5042741;28;20021;-76
2022/03/28 13:36:59;;;;;;;7.90;4.00;;;;;;;;;;5043879;28;20030;-76
2022/03/28 13:39:25;;;;;;;8.63;3.85;;;;;;;;;;5045098;28;20033;-76
2022/03/28 13:41:51;;;;;;;7.10;4.40;;;;;;;;;;5043521;28;20075;-76
2022/03/28 13:44:17;;;;;;;7.70;3.67;;;;;;;;;;5041700;28;20061;-76
2022/03/28 13:46:45;;;;;;;5.55;3.83;;;;;;;;;;5041937;28;20033;-75
2022/03/28 13:49:11;;;;;;;8.13;4.25;;;;;;;;;;5039023;28;20025;-76
2022/03/28 13:51:38;;;;;;;8.48;4.63;;;;;;;;;;5041453;28;20036;-76
2022/03/28 13:54:05;;;;;;;9.10;5.85;;;;;;;;;;5039978;28;20025;-75
2022/03/28 13:56:31;;;;;;;8.35;5.03;;;;;;;;;;5046132;28;20547;-75
2022/03/28 13:58:57;;;;;;;9.20;5.60;;;;;;;;;;5047813;28;20026;-74
2022/03/28 14:01:27;;;;;;;9.40;5.13;;;;;;;;;;5049393;28;20037;-76
2022/03/28 14:03:54;;;;;;;9.40;5.55;;;;;;;;;;5048593;28;20026;-75
2022/03/28 14:06:20;;;;;;;8.85;5.55;;;;;;;;;;5050278;28;20038;-75
2022/03/28 14:08:46;;;;;;;10.52;5.13;;;;;;;;;;5050256;28;20134;-75
2022/03/28 14:11:12;;;;;;;8.40;4.75;;;;;;;;;;5048158;28;20040;-76
2022/03/28 14:13:39;;;;;;;6.72;4.65;;;;;;;;;;5045629;28;20021;-76
2022/03/28 14:16:05;;;;;;;8.05;4.55;;;;;;;;;;5037628;28;20083;-75
2022/03/28 14:18:31;;;;;;;9.32;4.93;;;;;;;;;;5036854;28;20059;-76
2022/03/28 14:20:57;;;;;;;10.98;5.18;;;;;;;;;;5036582;28;20188;-74
2022/03/28 14:23:24;;;;;;;10.27;5.00;;;;;;;;;;5042746;28;20037;-75
2022/03/28 14:25:50;;;;;;;9.18;4.82;;;;;;;;;;5046416;28;20032;-76
2022/03/28 14:28:17;;;;;;;9.20;5.00;;;;;;;;;;5048246;28;20077;-77
2022/03/28 14:30:43;;;;;;;9.10;4.63;;;;;;;;;;5048558;28;20225;-77
2022/03/28 14:33:09;;;;;;;12.75;5.55;;;;;;;;;;5045763;28;20056;-76
2022/03/28 14:35:35;;;;;;;10.13;5.65;;;;;;;;;;5039591;28;20434;-76
2022/03/28 14:38:02;;;;;;;9.75;5.05;;;;;;;;;;5040702;28;20029;-77